sensor_id;sensor_type;location;lat;lon;timestamp;temperature;humidity
12268;DHT22;6196;48.398;11.736;2022-12-18T00:01:26;-4.90;99.90
12268;DHT22;6196;48.398;11.736;2022-12-18T00:03:57;-4.90;99.90
12268;DHT22;6196;48.398;11.736;2022-12-18T00:06:26;-5.00;99.90
12268;DHT22;6196;48.398;11.736;2022-12-18T00:08:56;-4.90;99.90
12268;DHT22;6196;48.398;11.736;2022-12-18T00:11:25;-5.00;99.90
12268;DHT22;6196;48.398;11.736;2022-12-18T00:13:55;-5.00;99.90
12268;DHT22;6196;48.398;11.736;2022-12-18T00:16:24;-4.90;99.90
12268;DHT22;6196;48.398;11.736;2022-12-18T00:18:53;-5.00;99.90
12268;DHT22;6196;48.398;11.736;2022-12-18T00:21:21;-5.00;99.90
12268;DHT22;6196;48.398;11.736;2022-12-18T00:23:49;-5.00;99.90
12268;DHT22;6196;48.398;11.736;2022-12-18T00:26:23;-5.10;99.90
12268;DHT22;6196;48.398;11.736;2022-12-18T00:28:51;-5.10;99.90
12268;DHT22;6196;48.398;11.736;2022-12-18T00:31:21;-4.90;99.90
12268;DHT22;6196;48.398;11.736;2022-12-18T00:33:49;-4.90;99.90
12268;DHT22;6196;48.398;11.736;2022-12-18T00:36:23;-5.00;99.90
12268;DHT22;6196;48.398;11.736;2022-12-18T00:38:52;-5.00;99.90
12268;DHT22;6196;48.398;11.736;2022-12-18T00:41:20;-5.00;99.90
12268;DHT22;6196;48.398;11.736;2022-12-18T00:44:07;-5.00;99.90
12268;DHT22;6196;48.398;11.736;2022-12-18T00:46:36;-4.90;99.90
12268;DHT22;6196;48.398;11.736;2022-12-18T00:49:03;-4.90;99.90
12268;DHT22;6196;48.398;11.736;2022-12-18T00:51:30;-4.90;99.90
12268;DHT22;6196;48.398;11.736;2022-12-18T00:53:57;-4.90;99.90
12268;DHT22;6196;48.398;11.736;2022-12-18T00:56:24;-4.90;99.90
12268;DHT22;6196;48.398;11.736;2022-12-18T00:58:51;-4.90;99.90
12268;DHT22;6196;48.398;11.736;2022-12-18T01:01:18;-4.80;99.90
12268;DHT22;6196;48.398;11.736;2022-12-18T01:03:46;-4.70;99.90
12268;DHT22;6196;48.398;11.736;2022-12-18T01:06:15;-4.70;99.90
12268;DHT22;6196;48.398;11.736;2022-12-18T01:08:42;-4.70;99.90
12268;DHT22;6196;48.398;11.736;2022-12-18T01:11:12;-4.70;99.90
12268;DHT22;6196;48.398;11.736;2022-12-18T01:13:42;-4.70;99.90
12268;DHT22;6196;48.398;11.736;2022-12-18T01:16:13;-4.70;99.90
12268;DHT22;6196;48.398;11.736;2022-12-18T01:18:40;-4.70;99.90
12268;DHT22;6196;48.398;11.736;2022-12-18T01:21:13;-4.80;99.90
12268;DHT22;6196;48.398;11.736;2022-12-18T01:23:41;-4.70;99.90
12268;DHT22;6196;48.398;11.736;2022-12-18T01:26:11;-4.70;99.90
12268;DHT22;6196;48.398;11.736;2022-12-18T01:28:43;-4.70;99.90
12268;DHT22;6196;48.398;11.736;2022-12-18T01:31:22;-4.70;99.90
12268;DHT22;6196;48.398;11.736;2022-12-18T01:34:03;-4.70;99.90
12268;DHT22;6196;48.398;11.736;2022-12-18T01:36:33;-4.60;99.90
12268;DHT22;6196;48.398;11.736;2022-12-18T01:39:04;-4.60;99.90
12268;DHT22;6196;48.398;11.736;2022-12-18T01:41:33;-4.60;99.90
12268;DHT22;6196;48.398;11.736;2022-12-18T01:47:36;-4.50;99.90
12268;DHT22;6196;48.398;11.736;2022-12-18T01:50:13;-4.40;99.90
12268;DHT22;6196;48.398;11.736;2022-12-18T01:52:46;-4.50;99.90
12268;DHT22;6196;48.398;11.736;2022-12-18T01:55:17;-4.60;99.90
12268;DHT22;6196;48.398;11.736;2022-12-18T01:57:45;-4.50;99.90
12268;DHT22;6196;48.398;11.736;2022-12-18T02:00:23;-4.50;99.90
12268;DHT22;6196;48.398;11.736;2022-12-18T02:02:50;-4.50;99.90
12268;DHT22;6196;48.398;11.736;2022-12-18T02:05:23;-4.40;99.90
12268;DHT22;6196;48.398;11.736;2022-12-18T02:09:01;-4.50;99.90
12268;DHT22;6196;48.398;11.736;2022-12-18T02:11:10;-4.40;99.90
12268;DHT22;6196;48.398;11.736;2022-12-18T02:14:03;-4.50;99.90
12268;DHT22;6196;48.398;11.736;2022-12-18T02:16:44;-4.60;99.90
12268;DHT22;6196;48.398;11.736;2022-12-18T02:20:05;-4.60;99.90
12268;DHT22;6196;48.398;11.736;2022-12-18T02:22:35;-4.50;99.90
12268;DHT22;6196;48.398;11.736;2022-12-18T02:28:36;-4.50;99.90
12268;DHT22;6196;48.398;11.736;2022-12-18T02:31:11;-4.40;99.90
12268;DHT22;6196;48.398;11.736;2022-12-18T02:33:43;-4.40;99.90
12268;DHT22;6196;48.398;11.736;2022-12-18T02:36:13;-4.40;99.90
12268;DHT22;6196;48.398;11.736;2022-12-18T02:38:42;-4.40;99.90
12268;DHT22;6196;48.398;11.736;2022-12-18T02:41:10;-4.40;99.90
12268;DHT22;6196;48.398;11.736;2022-12-18T02:43:38;-4.40;99.90
12268;DHT22;6196;48.398;11.736;2022-12-18T02:49:22;-4.40;99.90
12268;DHT22;6196;48.398;11.736;2022-12-18T02:52:01;-4.30;99.90
12268;DHT22;6196;48.398;11.736;2022-12-18T02:57:55;-4.30;99.90
12268;DHT22;6196;48.398;11.736;2022-12-18T03:00:36;-4.30;99.90
12268;DHT22;6196;48.398;11.736;2022-12-18T03:03:25;-4.30;99.90
12268;DHT22;6196;48.398;11.736;2022-12-18T03:06:07;-4.20;99.90
12268;DHT22;6196;48.398;11.736;2022-12-18T03:08:40;-4.20;99.90
12268;DHT22;6196;48.398;11.736;2022-12-18T03:11:11;-4.20;99.90
12268;DHT22;6196;48.398;11.736;2022-12-18T03:13:45;-4.10;99.90
12268;DHT22;6196;48.398;11.736;2022-12-18T03:16:25;-4.10;99.90
12268;DHT22;6196;48.398;11.736;2022-12-18T03:18:58;-4.00;99.90
12268;DHT22;6196;48.398;11.736;2022-12-18T03:21:32;-4.00;99.90
12268;DHT22;6196;48.398;11.736;2022-12-18T03:24:04;-4.00;99.90
12268;DHT22;6196;48.398;11.736;2022-12-18T03:26:35;-4.00;99.90
12268;DHT22;6196;48.398;11.736;2022-12-18T03:29:07;-4.00;99.90
12268;DHT22;6196;48.398;11.736;2022-12-18T03:31:37;-3.90;99.90
12268;DHT22;6196;48.398;11.736;2022-12-18T03:34:19;-3.90;99.90
12268;DHT22;6196;48.398;11.736;2022-12-18T03:36:49;-3.90;99.90
12268;DHT22;6196;48.398;11.736;2022-12-18T03:39:16;-3.90;99.90
12268;DHT22;6196;48.398;11.736;2022-12-18T03:45:02;-3.90;99.90
12268;DHT22;6196;48.398;11.736;2022-12-18T03:50:49;-3.90;99.90
12268;DHT22;6196;48.398;11.736;2022-12-18T03:53:41;-4.00;99.90
12268;DHT22;6196;48.398;11.736;2022-12-18T03:56:18;-4.00;99.90
12268;DHT22;6196;48.398;11.736;2022-12-18T03:58:48;-4.00;99.90
12268;DHT22;6196;48.398;11.736;2022-12-18T04:01:16;-4.00;99.90
12268;DHT22;6196;48.398;11.736;2022-12-18T04:03:46;-4.00;99.90
12268;DHT22;6196;48.398;11.736;2022-12-18T04:06:16;-4.00;99.90
12268;DHT22;6196;48.398;11.736;2022-12-18T04:08:44;-4.00;99.90
12268;DHT22;6196;48.398;11.736;2022-12-18T04:11:11;-4.10;99.90
12268;DHT22;6196;48.398;11.736;2022-12-18T04:13:38;-4.10;99.90
12268;DHT22;6196;48.398;11.736;2022-12-18T04:16:06;-4.20;99.90
12268;DHT22;6196;48.398;11.736;2022-12-18T04:18:34;-4.30;99.90
12268;DHT22;6196;48.398;11.736;2022-12-18T04:21:01;-4.30;99.90
12268;DHT22;6196;48.398;11.736;2022-12-18T04:23:28;-4.40;99.90
12268;DHT22;6196;48.398;11.736;2022-12-18T04:25:55;-4.40;99.90
12268;DHT22;6196;48.398;11.736;2022-12-18T04:28:22;-4.30;99.90
12268;DHT22;6196;48.398;11.736;2022-12-18T04:30:49;-4.30;99.90
12268;DHT22;6196;48.398;11.736;2022-12-18T04:33:16;-4.30;99.90
12268;DHT22;6196;48.398;11.736;2022-12-18T04:35:43;-4.30;99.90
12268;DHT22;6196;48.398;11.736;2022-12-18T04:38:11;-4.20;99.90
12268;DHT22;6196;48.398;11.736;2022-12-18T04:40:38;-4.20;99.90
12268;DHT22;6196;48.398;11.736;2022-12-18T04:43:06;-4.10;99.90
12268;DHT22;6196;48.398;11.736;2022-12-18T04:45:33;-4.20;99.90
12268;DHT22;6196;48.398;11.736;2022-12-18T04:48:01;-4.20;99.90
12268;DHT22;6196;48.398;11.736;2022-12-18T04:50:29;-4.20;99.90
12268;DHT22;6196;48.398;11.736;2022-12-18T04:52:56;-4.20;99.90
12268;DHT22;6196;48.398;11.736;2022-12-18T04:55:24;-4.20;99.90
12268;DHT22;6196;48.398;11.736;2022-12-18T04:57:51;-4.10;99.90
12268;DHT22;6196;48.398;11.736;2022-12-18T05:00:18;-4.10;99.90
12268;DHT22;6196;48.398;11.736;2022-12-18T05:02:45;-4.10;99.90
12268;DHT22;6196;48.398;11.736;2022-12-18T05:05:12;-4.10;99.90
12268;DHT22;6196;48.398;11.736;2022-12-18T05:07:39;-4.10;99.90
12268;DHT22;6196;48.398;11.736;2022-12-18T05:10:07;-4.10;99.90
12268;DHT22;6196;48.398;11.736;2022-12-18T05:12:35;-4.10;99.90
12268;DHT22;6196;48.398;11.736;2022-12-18T05:15:22;-4.00;99.90
12268;DHT22;6196;48.398;11.736;2022-12-18T05:17:49;-4.00;99.90
12268;DHT22;6196;48.398;11.736;2022-12-18T05:20:16;-4.00;99.90
12268;DHT22;6196;48.398;11.736;2022-12-18T05:22:44;-4.00;99.90
12268;DHT22;6196;48.398;11.736;2022-12-18T05:25:11;-4.10;99.90
12268;DHT22;6196;48.398;11.736;2022-12-18T05:27:38;-4.10;99.90
12268;DHT22;6196;48.398;11.736;2022-12-18T05:30:05;-4.20;99.90
12268;DHT22;6196;48.398;11.736;2022-12-18T05:32:32;-4.20;99.90
12268;DHT22;6196;48.398;11.736;2022-12-18T05:34:59;-4.20;99.90
12268;DHT22;6196;48.398;11.736;2022-12-18T05:37:26;-4.20;99.90
12268;DHT22;6196;48.398;11.736;2022-12-18T05:39:53;-4.20;99.90
12268;DHT22;6196;48.398;11.736;2022-12-18T05:42:19;-4.10;99.90
12268;DHT22;6196;48.398;11.736;2022-12-18T05:44:46;-4.10;99.90
12268;DHT22;6196;48.398;11.736;2022-12-18T05:47:13;-4.20;99.90
12268;DHT22;6196;48.398;11.736;2022-12-18T05:49:40;-4.20;99.90
12268;DHT22;6196;48.398;11.736;2022-12-18T05:52:07;-4.20;99.90
12268;DHT22;6196;48.398;11.736;2022-12-18T05:54:34;-4.30;99.90
12268;DHT22;6196;48.398;11.736;2022-12-18T05:57:01;-4.20;99.90
12268;DHT22;6196;48.398;11.736;2022-12-18T05:59:27;-4.30;99.90
12268;DHT22;6196;48.398;11.736;2022-12-18T06:01:54;-4.20;99.90
12268;DHT22;6196;48.398;11.736;2022-12-18T06:04:21;-4.30;99.90
12268;DHT22;6196;48.398;11.736;2022-12-18T06:06:48;-4.20;99.90
12268;DHT22;6196;48.398;11.736;2022-12-18T06:09:15;-4.30;99.90
12268;DHT22;6196;48.398;11.736;2022-12-18T06:11:42;-4.30;99.90
12268;DHT22;6196;48.398;11.736;2022-12-18T06:14:09;-4.30;99.90
12268;DHT22;6196;48.398;11.736;2022-12-18T06:16:36;-4.30;99.90
12268;DHT22;6196;48.398;11.736;2022-12-18T06:19:05;-4.20;99.90
12268;DHT22;6196;48.398;11.736;2022-12-18T06:21:32;-4.20;99.90
12268;DHT22;6196;48.398;11.736;2022-12-18T06:24:00;-4.20;99.90
12268;DHT22;6196;48.398;11.736;2022-12-18T06:26:27;-4.10;99.90
12268;DHT22;6196;48.398;11.736;2022-12-18T06:28:54;-4.20;99.90
12268;DHT22;6196;48.398;11.736;2022-12-18T06:31:21;-4.20;99.90
12268;DHT22;6196;48.398;11.736;2022-12-18T06:33:48;-4.20;99.90
12268;DHT22;6196;48.398;11.736;2022-12-18T06:36:15;-4.20;99.90
12268;DHT22;6196;48.398;11.736;2022-12-18T06:38:43;-4.20;99.90
12268;DHT22;6196;48.398;11.736;2022-12-18T06:41:16;-4.20;99.90
12268;DHT22;6196;48.398;11.736;2022-12-18T06:43:44;-4.20;99.90
12268;DHT22;6196;48.398;11.736;2022-12-18T06:46:12;-4.20;99.90
12268;DHT22;6196;48.398;11.736;2022-12-18T06:48:39;-4.20;99.90
12268;DHT22;6196;48.398;11.736;2022-12-18T06:51:06;-4.20;99.90
12268;DHT22;6196;48.398;11.736;2022-12-18T06:53:33;-4.20;99.90
12268;DHT22;6196;48.398;11.736;2022-12-18T06:56:05;-4.20;99.90
12268;DHT22;6196;48.398;11.736;2022-12-18T06:58:37;-4.30;99.90
12268;DHT22;6196;48.398;11.736;2022-12-18T07:01:07;-4.40;99.90
12268;DHT22;6196;48.398;11.736;2022-12-18T07:03:35;-4.30;99.90
12268;DHT22;6196;48.398;11.736;2022-12-18T07:06:03;-4.40;99.90
12268;DHT22;6196;48.398;11.736;2022-12-18T07:08:31;-4.40;99.90
12268;DHT22;6196;48.398;11.736;2022-12-18T07:10:58;-4.40;99.90
12268;DHT22;6196;48.398;11.736;2022-12-18T07:13:25;-4.30;99.90
12268;DHT22;6196;48.398;11.736;2022-12-18T07:15:53;-4.30;99.90
12268;DHT22;6196;48.398;11.736;2022-12-18T07:18:19;-4.30;99.90
12268;DHT22;6196;48.398;11.736;2022-12-18T07:20:46;-4.40;99.90
12268;DHT22;6196;48.398;11.736;2022-12-18T07:23:14;-4.30;99.90
12268;DHT22;6196;48.398;11.736;2022-12-18T07:25:41;-4.30;99.90
12268;DHT22;6196;48.398;11.736;2022-12-18T07:28:08;-4.30;99.90
12268;DHT22;6196;48.398;11.736;2022-12-18T07:30:42;-4.40;99.90
12268;DHT22;6196;48.398;11.736;2022-12-18T07:33:09;-4.40;99.90
12268;DHT22;6196;48.398;11.736;2022-12-18T07:35:36;-4.50;99.90
12268;DHT22;6196;48.398;11.736;2022-12-18T07:38:02;-4.40;99.90
12268;DHT22;6196;48.398;11.736;2022-12-18T07:40:29;-4.40;99.90
12268;DHT22;6196;48.398;11.736;2022-12-18T07:42:56;-4.30;99.90
12268;DHT22;6196;48.398;11.736;2022-12-18T07:45:23;-4.20;99.90
12268;DHT22;6196;48.398;11.736;2022-12-18T07:47:50;-4.30;99.90
12268;DHT22;6196;48.398;11.736;2022-12-18T07:50:16;-4.30;99.90
12268;DHT22;6196;48.398;11.736;2022-12-18T07:52:43;-4.30;99.90
12268;DHT22;6196;48.398;11.736;2022-12-18T07:55:10;-4.20;99.90
12268;DHT22;6196;48.398;11.736;2022-12-18T07:57:37;-4.30;99.90
12268;DHT22;6196;48.398;11.736;2022-12-18T08:00:16;-4.30;99.90
12268;DHT22;6196;48.398;11.736;2022-12-18T08:02:43;-4.30;99.90
12268;DHT22;6196;48.398;11.736;2022-12-18T08:05:10;-4.30;99.90
12268;DHT22;6196;48.398;11.736;2022-12-18T08:07:37;-4.40;99.90
12268;DHT22;6196;48.398;11.736;2022-12-18T08:10:04;-4.40;99.90
12268;DHT22;6196;48.398;11.736;2022-12-18T08:12:32;-4.30;99.90
12268;DHT22;6196;48.398;11.736;2022-12-18T08:14:58;-4.30;99.90
12268;DHT22;6196;48.398;11.736;2022-12-18T08:17:25;-4.30;99.90
12268;DHT22;6196;48.398;11.736;2022-12-18T08:19:52;-4.40;99.90
12268;DHT22;6196;48.398;11.736;2022-12-18T08:22:19;-4.30;99.90
12268;DHT22;6196;48.398;11.736;2022-12-18T08:24:46;-4.30;99.90
12268;DHT22;6196;48.398;11.736;2022-12-18T08:27:13;-4.20;99.90
12268;DHT22;6196;48.398;11.736;2022-12-18T08:29:55;-4.10;99.90
12268;DHT22;6196;48.398;11.736;2022-12-18T08:32:23;-4.20;99.90
12268;DHT22;6196;48.398;11.736;2022-12-18T08:34:50;-4.20;99.90
12268;DHT22;6196;48.398;11.736;2022-12-18T08:37:17;-4.20;99.90
12268;DHT22;6196;48.398;11.736;2022-12-18T08:39:44;-4.30;99.90
12268;DHT22;6196;48.398;11.736;2022-12-18T08:42:11;-4.30;99.90
12268;DHT22;6196;48.398;11.736;2022-12-18T08:44:57;-4.20;99.90
12268;DHT22;6196;48.398;11.736;2022-12-18T08:47:24;-4.10;99.90
12268;DHT22;6196;48.398;11.736;2022-12-18T08:49:52;-3.90;99.90
12268;DHT22;6196;48.398;11.736;2022-12-18T08:52:19;-3.80;99.90
12268;DHT22;6196;48.398;11.736;2022-12-18T08:54:45;-3.80;99.90
12268;DHT22;6196;48.398;11.736;2022-12-18T08:57:12;-3.80;99.90
12268;DHT22;6196;48.398;11.736;2022-12-18T08:59:39;-3.80;99.90
12268;DHT22;6196;48.398;11.736;2022-12-18T09:02:07;-3.80;99.90
12268;DHT22;6196;48.398;11.736;2022-12-18T09:04:36;-3.90;99.90
12268;DHT22;6196;48.398;11.736;2022-12-18T09:07:02;-3.80;99.90
12268;DHT22;6196;48.398;11.736;2022-12-18T09:09:29;-3.80;99.90
12268;DHT22;6196;48.398;11.736;2022-12-18T09:11:56;-3.80;99.90
12268;DHT22;6196;48.398;11.736;2022-12-18T09:14:23;-3.90;99.90
12268;DHT22;6196;48.398;11.736;2022-12-18T09:16:49;-3.90;99.90
12268;DHT22;6196;48.398;11.736;2022-12-18T09:19:16;-3.80;99.90
12268;DHT22;6196;48.398;11.736;2022-12-18T09:21:43;-3.70;99.90
12268;DHT22;6196;48.398;11.736;2022-12-18T09:24:14;-3.70;99.90
12268;DHT22;6196;48.398;11.736;2022-12-18T09:26:42;-3.70;99.90
12268;DHT22;6196;48.398;11.736;2022-12-18T09:29:13;-3.70;99.90
12268;DHT22;6196;48.398;11.736;2022-12-18T09:31:41;-3.70;99.90
12268;DHT22;6196;48.398;11.736;2022-12-18T09:34:08;-3.70;99.90
12268;DHT22;6196;48.398;11.736;2022-12-18T09:36:35;-3.50;99.90
12268;DHT22;6196;48.398;11.736;2022-12-18T09:39:02;-3.60;99.90
12268;DHT22;6196;48.398;11.736;2022-12-18T09:41:55;-3.50;99.90
12268;DHT22;6196;48.398;11.736;2022-12-18T09:44:34;-3.40;99.90
12268;DHT22;6196;48.398;11.736;2022-12-18T09:47:18;-3.40;99.90
12268;DHT22;6196;48.398;11.736;2022-12-18T09:49:56;-3.60;99.90
12268;DHT22;6196;48.398;11.736;2022-12-18T09:55:05;-3.80;99.90
12268;DHT22;6196;48.398;11.736;2022-12-18T09:57:45;-4.00;99.90
12268;DHT22;6196;48.398;11.736;2022-12-18T10:00:20;-3.90;99.90
12268;DHT22;6196;48.398;11.736;2022-12-18T10:02:51;-3.70;99.90
12268;DHT22;6196;48.398;11.736;2022-12-18T10:08:45;-3.60;99.90
12268;DHT22;6196;48.398;11.736;2022-12-18T10:14:00;-3.40;99.90
12268;DHT22;6196;48.398;11.736;2022-12-18T10:22:57;-3.30;99.90
12268;DHT22;6196;48.398;11.736;2022-12-18T10:25:39;-3.40;99.90
12268;DHT22;6196;48.398;11.736;2022-12-18T10:28:30;-3.50;99.90
12268;DHT22;6196;48.398;11.736;2022-12-18T10:30:58;-3.50;99.90
12268;DHT22;6196;48.398;11.736;2022-12-18T10:33:29;-3.50;99.90
12268;DHT22;6196;48.398;11.736;2022-12-18T10:35:58;-3.60;99.90
12268;DHT22;6196;48.398;11.736;2022-12-18T10:38:28;-3.40;99.90
12268;DHT22;6196;48.398;11.736;2022-12-18T10:41:05;-3.30;99.90
12268;DHT22;6196;48.398;11.736;2022-12-18T10:43:39;-3.30;99.90
12268;DHT22;6196;48.398;11.736;2022-12-18T10:51:40;-3.00;99.90
12268;DHT22;6196;48.398;11.736;2022-12-18T10:54:15;-2.80;99.90
12268;DHT22;6196;48.398;11.736;2022-12-18T10:56:44;-2.90;99.90
12268;DHT22;6196;48.398;11.736;2022-12-18T10:59:15;-2.60;99.90
12268;DHT22;6196;48.398;11.736;2022-12-18T11:01:54;-2.70;99.90
12268;DHT22;6196;48.398;11.736;2022-12-18T11:04:27;-2.60;99.90
12268;DHT22;6196;48.398;11.736;2022-12-18T11:07:01;-2.50;99.90
12268;DHT22;6196;48.398;11.736;2022-12-18T11:09:39;-2.40;99.90
12268;DHT22;6196;48.398;11.736;2022-12-18T11:12:17;-2.40;99.90
12268;DHT22;6196;48.398;11.736;2022-12-18T11:14:53;-2.50;99.90
12268;DHT22;6196;48.398;11.736;2022-12-18T11:17:33;-2.60;99.90
12268;DHT22;6196;48.398;11.736;2022-12-18T11:20:04;-2.50;99.90
12268;DHT22;6196;48.398;11.736;2022-12-18T11:22:35;-2.40;99.90
12268;DHT22;6196;48.398;11.736;2022-12-18T11:30:36;-2.60;99.90
12268;DHT22;6196;48.398;11.736;2022-12-18T11:35:47;-2.50;99.90
12268;DHT22;6196;48.398;11.736;2022-12-18T11:38:31;-2.50;99.90
12268;DHT22;6196;48.398;11.736;2022-12-18T11:41:05;-2.50;99.90
12268;DHT22;6196;48.398;11.736;2022-12-18T11:43:48;-2.30;99.90
12268;DHT22;6196;48.398;11.736;2022-12-18T11:46:24;-2.30;99.90
12268;DHT22;6196;48.398;11.736;2022-12-18T11:49:00;-2.20;99.90
12268;DHT22;6196;48.398;11.736;2022-12-18T11:51:38;-2.20;99.90
12268;DHT22;6196;48.398;11.736;2022-12-18T11:54:14;-2.20;99.90
12268;DHT22;6196;48.398;11.736;2022-12-18T11:56:53;-2.20;99.90
12268;DHT22;6196;48.398;11.736;2022-12-18T11:59:47;-2.10;99.90
12268;DHT22;6196;48.398;11.736;2022-12-18T12:08:59;-2.30;99.90
12268;DHT22;6196;48.398;11.736;2022-12-18T12:11:41;-2.30;99.90
12268;DHT22;6196;48.398;11.736;2022-12-18T12:14:51;-2.40;99.90
12268;DHT22;6196;48.398;11.736;2022-12-18T12:17:47;-2.50;99.90
12268;DHT22;6196;48.398;11.736;2022-12-18T12:20:44;-2.90;99.90
12268;DHT22;6196;48.398;11.736;2022-12-18T12:34:18;-2.90;99.90
12268;DHT22;6196;48.398;11.736;2022-12-18T12:40:18;-2.90;99.90
12268;DHT22;6196;48.398;11.736;2022-12-18T12:46:30;-2.50;99.90
12268;DHT22;6196;48.398;11.736;2022-12-18T12:49:02;-2.50;99.90
12268;DHT22;6196;48.398;11.736;2022-12-18T12:54:15;-2.70;99.90
12268;DHT22;6196;48.398;11.736;2022-12-18T13:02:20;-2.80;99.90
12268;DHT22;6196;48.398;11.736;2022-12-18T13:05:10;-2.90;99.90
12268;DHT22;6196;48.398;11.736;2022-12-18T13:08:11;-2.90;99.90
12268;DHT22;6196;48.398;11.736;2022-12-18T13:10:41;-2.80;99.90
12268;DHT22;6196;48.398;11.736;2022-12-18T13:13:14;-2.80;99.90
12268;DHT22;6196;48.398;11.736;2022-12-18T13:16:06;-2.50;99.90
12268;DHT22;6196;48.398;11.736;2022-12-18T13:18:34;-2.10;99.90
12268;DHT22;6196;48.398;11.736;2022-12-18T13:21:20;-1.90;99.90
12268;DHT22;6196;48.398;11.736;2022-12-18T13:23:50;-2.00;99.90
12268;DHT22;6196;48.398;11.736;2022-12-18T13:28:53;-2.50;99.90
12268;DHT22;6196;48.398;11.736;2022-12-18T13:34:26;-2.50;99.90
12268;DHT22;6196;48.398;11.736;2022-12-18T13:39:58;-2.40;99.90
12268;DHT22;6196;48.398;11.736;2022-12-18T13:42:37;-2.50;99.90
12268;DHT22;6196;48.398;11.736;2022-12-18T13:46:02;-2.50;99.90
12268;DHT22;6196;48.398;11.736;2022-12-18T13:48:34;-2.70;99.90
12268;DHT22;6196;48.398;11.736;2022-12-18T13:51:05;-2.80;99.90
12268;DHT22;6196;48.398;11.736;2022-12-18T13:53:51;-2.90;99.90
12268;DHT22;6196;48.398;11.736;2022-12-18T13:56:32;-2.90;99.90
12268;DHT22;6196;48.398;11.736;2022-12-18T14:01:50;-2.80;99.90
12268;DHT22;6196;48.398;11.736;2022-12-18T14:04:22;-2.80;99.90
12268;DHT22;6196;48.398;11.736;2022-12-18T14:06:51;-2.80;99.90
12268;DHT22;6196;48.398;11.736;2022-12-18T14:09:29;-2.90;99.90
12268;DHT22;6196;48.398;11.736;2022-12-18T14:11:58;-3.00;99.90
12268;DHT22;6196;48.398;11.736;2022-12-18T14:14:48;-3.00;99.90
12268;DHT22;6196;48.398;11.736;2022-12-18T14:17:20;-3.20;99.90
12268;DHT22;6196;48.398;11.736;2022-12-18T14:19:49;-3.20;99.90
12268;DHT22;6196;48.398;11.736;2022-12-18T14:22:28;-3.20;99.90
12268;DHT22;6196;48.398;11.736;2022-12-18T14:25:19;-3.20;99.90
12268;DHT22;6196;48.398;11.736;2022-12-18T14:30:44;-3.30;99.90
12268;DHT22;6196;48.398;11.736;2022-12-18T14:33:23;-3.40;99.90
12268;DHT22;6196;48.398;11.736;2022-12-18T14:36:03;-3.60;99.90
12268;DHT22;6196;48.398;11.736;2022-12-18T14:38:36;-3.90;99.90
12268;DHT22;6196;48.398;11.736;2022-12-18T14:41:09;-4.00;99.90
12268;DHT22;6196;48.398;11.736;2022-12-18T14:43:40;-4.10;99.90
12268;DHT22;6196;48.398;11.736;2022-12-18T14:46:38;-4.00;99.90
12268;DHT22;6196;48.398;11.736;2022-12-18T14:49:30;-3.90;99.90
12268;DHT22;6196;48.398;11.736;2022-12-18T14:52:00;-3.90;99.90
12268;DHT22;6196;48.398;11.736;2022-12-18T14:54:31;-4.00;99.90
12268;DHT22;6196;48.398;11.736;2022-12-18T14:57:51;-4.00;99.90
12268;DHT22;6196;48.398;11.736;2022-12-18T15:00:19;-4.00;99.90
12268;DHT22;6196;48.398;11.736;2022-12-18T15:02:57;-4.00;99.90
12268;DHT22;6196;48.398;11.736;2022-12-18T15:07:58;-4.00;99.90
12268;DHT22;6196;48.398;11.736;2022-12-18T15:10:30;-4.00;99.90
12268;DHT22;6196;48.398;11.736;2022-12-18T15:18:00;-3.90;99.90
12268;DHT22;6196;48.398;11.736;2022-12-18T15:20:31;-4.00;99.90
12268;DHT22;6196;48.398;11.736;2022-12-18T15:22:59;-4.00;99.90
12268;DHT22;6196;48.398;11.736;2022-12-18T15:25:34;-4.00;99.90
12268;DHT22;6196;48.398;11.736;2022-12-18T15:28:13;-4.00;99.90
12268;DHT22;6196;48.398;11.736;2022-12-18T15:31:03;-4.00;99.90
12268;DHT22;6196;48.398;11.736;2022-12-18T15:33:34;-4.10;99.90
12268;DHT22;6196;48.398;11.736;2022-12-18T15:36:07;-4.00;99.90
12268;DHT22;6196;48.398;11.736;2022-12-18T15:38:35;-4.00;99.90
12268;DHT22;6196;48.398;11.736;2022-12-18T15:41:03;-4.00;99.90
12268;DHT22;6196;48.398;11.736;2022-12-18T15:43:33;-4.00;99.90
12268;DHT22;6196;48.398;11.736;2022-12-18T15:46:24;-4.00;99.90
12268;DHT22;6196;48.398;11.736;2022-12-18T15:48:55;-4.00;99.90
12268;DHT22;6196;48.398;11.736;2022-12-18T15:51:32;-4.00;99.90
12268;DHT22;6196;48.398;11.736;2022-12-18T15:54:09;-4.00;99.90
12268;DHT22;6196;48.398;11.736;2022-12-18T15:56:38;-4.00;99.90
12268;DHT22;6196;48.398;11.736;2022-12-18T15:59:24;-4.00;99.90
12268;DHT22;6196;48.398;11.736;2022-12-18T16:01:51;-4.00;99.90
12268;DHT22;6196;48.398;11.736;2022-12-18T16:04:22;-4.10;99.90
12268;DHT22;6196;48.398;11.736;2022-12-18T16:06:50;-4.00;99.90
12268;DHT22;6196;48.398;11.736;2022-12-18T16:09:38;-4.00;99.90
12268;DHT22;6196;48.398;11.736;2022-12-18T16:12:06;-4.00;99.90
12268;DHT22;6196;48.398;11.736;2022-12-18T16:14:35;-4.00;99.90
12268;DHT22;6196;48.398;11.736;2022-12-18T16:17:05;-4.10;99.90
12268;DHT22;6196;48.398;11.736;2022-12-18T16:19:36;-4.10;99.90
12268;DHT22;6196;48.398;11.736;2022-12-18T16:22:03;-4.00;99.90
12268;DHT22;6196;48.398;11.736;2022-12-18T16:24:31;-4.00;99.90
12268;DHT22;6196;48.398;11.736;2022-12-18T16:27:00;-4.10;99.90
12268;DHT22;6196;48.398;11.736;2022-12-18T16:29:28;-4.10;99.90
12268;DHT22;6196;48.398;11.736;2022-12-18T16:31:56;-4.10;99.90
12268;DHT22;6196;48.398;11.736;2022-12-18T16:34:26;-4.10;99.90
12268;DHT22;6196;48.398;11.736;2022-12-18T16:37:00;-4.10;99.90
12268;DHT22;6196;48.398;11.736;2022-12-18T16:39:32;-4.10;99.90
12268;DHT22;6196;48.398;11.736;2022-12-18T16:42:06;-4.10;99.90
12268;DHT22;6196;48.398;11.736;2022-12-18T16:44:42;-4.10;99.90
12268;DHT22;6196;48.398;11.736;2022-12-18T16:47:09;-4.30;99.90
12268;DHT22;6196;48.398;11.736;2022-12-18T16:49:40;-4.30;99.90
12268;DHT22;6196;48.398;11.736;2022-12-18T16:52:08;-4.20;99.90
12268;DHT22;6196;48.398;11.736;2022-12-18T16:54:34;-4.20;99.90
12268;DHT22;6196;48.398;11.736;2022-12-18T16:57:03;-4.20;99.90
12268;DHT22;6196;48.398;11.736;2022-12-18T16:59:34;-4.20;99.90
12268;DHT22;6196;48.398;11.736;2022-12-18T17:02:05;-4.10;99.90
12268;DHT22;6196;48.398;11.736;2022-12-18T17:04:32;-4.20;99.90
12268;DHT22;6196;48.398;11.736;2022-12-18T17:06:59;-4.20;99.90
12268;DHT22;6196;48.398;11.736;2022-12-18T17:09:26;-3.90;99.90
12268;DHT22;6196;48.398;11.736;2022-12-18T17:11:53;-3.90;99.90
12268;DHT22;6196;48.398;11.736;2022-12-18T17:14:23;-3.90;99.90
12268;DHT22;6196;48.398;11.736;2022-12-18T17:16:54;-4.00;99.90
12268;DHT22;6196;48.398;11.736;2022-12-18T17:19:42;-4.10;99.90
12268;DHT22;6196;48.398;11.736;2022-12-18T17:22:09;-4.10;99.90
12268;DHT22;6196;48.398;11.736;2022-12-18T17:24:36;-4.20;99.90
12268;DHT22;6196;48.398;11.736;2022-12-18T17:27:03;-4.20;99.90
12268;DHT22;6196;48.398;11.736;2022-12-18T17:29:30;-4.30;99.90
12268;DHT22;6196;48.398;11.736;2022-12-18T17:31:57;-4.30;99.90
12268;DHT22;6196;48.398;11.736;2022-12-18T17:34:26;-4.30;99.90
12268;DHT22;6196;48.398;11.736;2022-12-18T17:36:53;-4.20;99.90
12268;DHT22;6196;48.398;11.736;2022-12-18T17:39:20;-4.20;99.90
12268;DHT22;6196;48.398;11.736;2022-12-18T17:41:48;-4.20;99.90
12268;DHT22;6196;48.398;11.736;2022-12-18T17:44:16;-4.20;99.90